createdAt,value
2018-03-12T12:32:23.612Z,27.67
2018-03-12T12:33:37.417Z,27.66
2018-03-12T12:34:50.706Z,27.7
2018-03-12T12:36:03.980Z,27.74
2018-03-12T12:37:17.180Z,27.78
2018-03-12T12:38:30.318Z,27.97
2018-03-12T12:39:43.596Z,28.11
2018-03-12T12:40:56.881Z,28.06
2018-03-12T12:42:10.040Z,28.18
2018-03-12T12:43:22.781Z,28.25
2018-03-12T12:44:36.000Z,28.31
2018-03-12T12:45:48.751Z,28.36
2018-03-12T12:47:01.537Z,28.55
2018-03-12T12:48:14.739Z,28.51
2018-03-12T12:49:27.485Z,28.58
2018-03-12T12:50:40.330Z,28.39
2018-03-12T12:51:53.016Z,28.52
2018-03-12T12:53:06.188Z,28.56
2018-03-12T12:54:19.445Z,28.55
2018-03-12T12:55:32.635Z,28.76
2018-03-12T12:56:45.315Z,28.7
2018-03-12T12:57:57.506Z,28.76
2018-03-12T12:59:10.701Z,28.8
2018-03-12T13:00:23.386Z,28.73
2018-03-12T13:01:36.612Z,28.83
2018-03-12T13:02:49.807Z,29
2018-03-12T13:04:02.962Z,29.02
2018-03-12T13:05:16.221Z,29.08
2018-03-12T13:06:29.456Z,29.04
2018-03-12T13:07:42.722Z,29.19
2018-03-12T13:08:55.577Z,29.28
2018-03-12T13:10:08.292Z,29.27
2018-03-12T13:11:20.527Z,29.34
2018-03-12T13:12:33.280Z,29.37
2018-03-12T13:13:45.567Z,29.43
2018-03-12T13:14:58.293Z,29.39
2018-03-12T13:16:11.040Z,29.45
2018-03-12T13:17:23.785Z,29.53
2018-03-12T13:18:36.478Z,29.6
2018-03-12T13:19:49.211Z,29.53
2018-03-12T13:22:46.998Z,29.7
2018-03-12T13:23:59.683Z,29.8
2018-03-12T13:25:12.934Z,29.76
2018-03-12T13:26:26.165Z,29.94
2018-03-12T13:27:39.408Z,30
2018-03-12T13:28:52.158Z,29.9
2018-03-12T13:30:05.523Z,30.11
2018-03-12T13:31:18.820Z,30.07
2018-03-12T13:32:32.004Z,30.43
2018-03-12T13:33:44.803Z,30.64
2018-03-12T13:34:57.529Z,30.77
2018-03-12T13:36:10.664Z,30.46
2018-03-12T13:37:23.382Z,30.51
2018-03-12T13:38:36.150Z,30.47
2018-03-12T13:39:49.373Z,30.84
2018-03-12T13:41:01.872Z,31.12
2018-03-12T13:42:14.127Z,31.47
2018-03-12T13:43:27.365Z,31.68
2018-03-12T13:44:40.048Z,32.07
2018-03-12T13:45:53.182Z,32.13
2018-03-12T13:47:06.348Z,31.76
2018-03-12T13:48:19.622Z,31.61
2018-03-12T13:49:32.916Z,32.08
2018-03-12T13:50:45.137Z,32.28
2018-03-12T13:51:58.349Z,31.73
2018-03-12T13:53:11.537Z,31.21
2018-03-12T13:54:24.796Z,30.64
2018-03-12T13:55:37.930Z,30.53
2018-03-12T13:56:51.191Z,30.88
2018-03-12T13:58:04.408Z,30.83
2018-03-12T13:59:17.149Z,30.83
2018-03-12T14:00:29.901Z,31.16
2018-03-12T14:01:42.672Z,30.72
2018-03-12T14:02:55.921Z,30.75
2018-03-12T14:04:09.188Z,30.53
2018-03-12T14:05:22.394Z,30.88
2018-03-12T14:06:34.761Z,31.28
2018-03-12T14:07:47.964Z,31.26
2018-03-12T14:09:00.650Z,31.31
2018-03-12T14:10:13.868Z,31.89
2018-03-12T14:11:26.031Z,32.13
2018-03-12T14:12:39.258Z,32.21
2018-03-12T14:13:51.480Z,32.56
2018-03-12T14:15:03.828Z,32.89
2018-03-12T14:16:17.193Z,33.01
2018-03-12T14:17:30.398Z,33.31
2018-03-12T14:18:43.154Z,32.75
2018-03-12T14:19:55.912Z,32.08
2018-03-12T14:21:08.658Z,31.93
2018-03-12T14:22:21.903Z,31.72
2018-03-12T14:23:35.120Z,32
2018-03-12T14:24:47.880Z,32.52
2018-03-12T14:26:00.654Z,32.88
2018-03-12T14:27:13.822Z,33.45
2018-03-12T14:28:26.633Z,33.72
2018-03-12T14:29:38.882Z,34.08
2018-03-12T14:30:51.638Z,34.03
2018-03-12T14:32:04.835Z,33.91
2018-03-12T14:33:18.079Z,34.27
2018-03-12T14:34:30.837Z,33.82
2018-03-12T14:35:44.148Z,34.19
2018-03-12T14:36:57.465Z,34.02
2018-03-12T14:38:10.443Z,33.57
2018-03-12T14:39:23.197Z,33.49
2018-03-12T14:40:35.952Z,33.35
2018-03-12T14:41:49.211Z,33.23
2018-03-12T14:43:02.432Z,33.03
2018-03-12T14:44:15.674Z,33.04
2018-03-12T14:45:28.450Z,32.82
2018-03-12T14:46:41.674Z,32.72
2018-03-12T14:47:54.349Z,33.03
2018-03-12T14:49:07.545Z,33.41
2018-03-12T14:50:20.713Z,33.51
2018-03-12T14:51:33.389Z,32.92
2018-03-12T14:52:46.680Z,32.96
2018-03-12T14:53:59.888Z,32.96
2018-03-12T14:55:13.080Z,32.52
2018-03-12T14:56:26.269Z,32.65
2018-03-12T14:57:38.972Z,32.56
2018-03-12T14:58:52.136Z,32.62
2018-03-12T15:00:04.926Z,32.6
2018-03-12T15:01:18.347Z,32.56
2018-03-12T15:02:31.659Z,32.29
2018-03-12T15:03:44.842Z,32.56
2018-03-12T15:04:57.110Z,32.75
2018-03-12T15:06:10.349Z,33.04
2018-03-12T15:07:23.610Z,33.18
2018-03-12T15:08:36.806Z,33.63
2018-03-12T15:09:49.543Z,33.54
2018-03-12T15:11:02.539Z,33.94
2018-03-12T15:12:15.801Z,34.08
2018-03-12T15:13:28.994Z,33.86
2018-03-12T15:14:42.128Z,33.78
2018-03-12T15:15:54.834Z,33.97
2018-03-12T15:17:08.062Z,34.16
2018-03-12T15:18:21.293Z,34.64
2018-03-12T15:19:34.565Z,34.88
2018-03-12T15:20:47.825Z,34.72
2018-03-12T15:22:00.988Z,34.25
2018-03-12T15:23:13.246Z,33.88
2018-03-12T15:24:26.467Z,34.59
2018-03-12T15:25:39.203Z,34.66
2018-03-12T15:26:52.368Z,34.47
2018-03-12T15:28:05.104Z,34.32
2018-03-12T15:29:17.890Z,34.15
2018-03-12T15:30:30.592Z,34.08
2018-03-12T15:31:43.320Z,33.47
2018-03-12T15:32:56.047Z,33.6
2018-03-12T15:34:08.797Z,33.59
2018-03-12T15:35:21.987Z,33.93
2018-03-12T15:36:35.288Z,33.81
2018-03-12T15:37:48.504Z,33.53
2018-03-12T15:39:01.778Z,33.5
2018-03-12T15:40:15.029Z,33.72
2018-03-12T15:41:27.720Z,33.57
2018-03-12T15:42:40.446Z,33.28
2018-03-12T15:43:53.672Z,32.94
2018-03-12T15:45:06.893Z,33.14
2018-03-12T15:46:20.099Z,33.26
2018-03-12T15:47:33.367Z,33.47
2018-03-12T15:48:46.605Z,33.07
2018-03-12T15:49:59.840Z,32.47
2018-03-12T15:51:12.546Z,32
2018-03-12T15:52:24.757Z,31.76
2018-03-12T15:53:37.297Z,32.06
2018-03-12T15:54:50.546Z,32.22
2018-03-12T15:56:03.852Z,32.35
2018-03-12T15:57:17.197Z,32.81
2018-03-12T15:58:29.909Z,32.94
2018-03-12T15:59:43.011Z,33.23
2018-03-12T16:00:55.795Z,33.78
2018-03-12T16:02:08.590Z,33.71
2018-03-12T16:03:21.373Z,33.31
2018-03-12T16:04:34.069Z,33.04
2018-03-12T16:05:47.363Z,33.5
2018-03-12T16:07:00.635Z,33.79
2018-03-12T16:08:13.826Z,34.21
2018-03-12T16:09:41.063Z,33.78
2018-03-12T16:10:54.323Z,33.59
2018-03-12T16:12:07.065Z,33.87
2018-03-12T16:13:19.721Z,34.02
2018-03-12T16:14:31.962Z,34.09
2018-03-12T16:15:45.181Z,34.15
2018-03-12T16:16:58.423Z,34.47
2018-03-12T16:18:11.633Z,35.09
2018-03-12T16:19:24.940Z,35.58
2018-03-12T16:20:38.150Z,35.87
2018-03-12T16:21:51.335Z,35.74
2018-03-12T16:23:04.532Z,35.65
2018-03-12T16:24:16.914Z,35.59
2018-03-12T16:25:29.215Z,35.81
2018-03-12T16:26:42.055Z,36.09
2018-03-12T16:27:54.795Z,35.48
2018-03-12T16:29:07.499Z,35.84
2018-03-12T16:30:20.678Z,35.52
2018-03-12T16:31:33.945Z,35.62
2018-03-12T16:32:46.719Z,35.23
2018-03-12T16:33:59.443Z,34.94
2018-03-12T16:35:12.210Z,34.77
2018-03-12T16:36:24.490Z,34.73
2018-03-12T16:37:37.185Z,34.77
2018-03-12T16:38:50.527Z,34.78
2018-03-12T16:40:03.327Z,35.6
2018-03-12T16:41:15.995Z,35.53
2018-03-12T16:42:28.671Z,35.66
2018-03-12T16:43:41.934Z,36.12
2018-03-12T16:44:54.203Z,36.13
2018-03-12T16:46:07.405Z,36.44
2018-03-12T16:47:20.192Z,36.62
2018-03-12T16:48:33.421Z,37.07
2018-03-12T16:49:45.713Z,36.76
2018-03-12T16:50:58.388Z,36.49
2018-03-12T16:52:11.114Z,35.52
2018-03-12T16:53:23.898Z,34.75
2018-03-12T16:54:44.719Z,33.94
2018-03-12T16:55:57.924Z,33.65
2018-03-12T16:57:11.104Z,33.38
2018-03-12T16:58:24.407Z,32.96
2018-03-12T16:59:37.572Z,32.43
2018-03-12T17:00:50.750Z,32.19
2018-03-12T17:02:04.117Z,32.14
2018-03-12T17:03:17.259Z,32.56
2018-03-12T17:04:30.441Z,33.11
2018-03-12T17:05:43.151Z,33.82
2018-03-12T17:06:55.894Z,34.28
2018-03-12T17:08:08.577Z,34.17
2018-03-12T17:09:21.776Z,33.97
2018-03-12T17:10:35.044Z,32.99
2018-03-12T17:11:47.337Z,32.66
2018-03-12T17:13:00.602Z,32.35
2018-03-12T17:14:13.750Z,32.23
2018-03-12T17:15:26.258Z,32.1
2018-03-12T17:16:39.019Z,32.26
2018-03-12T17:17:51.757Z,32.81
2018-03-12T17:19:05.016Z,32.62
2018-03-12T17:20:17.694Z,32.44
2018-03-12T17:21:30.913Z,32.52
2018-03-12T17:22:44.156Z,32.38
2018-03-12T17:23:56.396Z,32.14
2018-03-12T17:25:09.608Z,32.07
2018-03-12T17:26:22.363Z,32.08
2018-03-12T17:27:35.646Z,32.25
2018-03-12T17:28:48.325Z,32.19
2018-03-12T17:30:01.481Z,32.14
2018-03-12T17:31:14.304Z,32.57
2018-03-12T17:32:27.558Z,32.75
2018-03-12T17:33:40.767Z,32.37
2018-03-12T17:34:53.974Z,31.99
2018-03-12T17:36:06.740Z,31.57
2018-03-12T17:37:19.959Z,31.28
2018-03-12T17:38:32.201Z,31.06
2018-03-12T17:39:45.439Z,30.94
2018-03-12T17:40:58.290Z,30.83
2018-03-12T17:42:11.527Z,30.67
2018-03-12T17:43:24.693Z,30.62
2018-03-12T17:44:37.891Z,30.61
2018-03-12T17:45:51.084Z,30.54
2018-03-12T17:47:04.367Z,30.46
2018-03-12T17:48:17.565Z,30.61
2018-03-12T17:49:29.875Z,30.43
2018-03-12T17:50:43.102Z,30.34
2018-03-12T17:51:55.821Z,30.46
2018-03-12T17:53:09.074Z,30.35
2018-03-12T17:54:22.304Z,30.23
2018-03-12T17:55:35.540Z,30.57
2018-03-12T17:56:48.758Z,31.06
2018-03-12T17:58:02.089Z,31.54
2018-03-12T17:59:15.269Z,31.69
2018-03-12T18:00:28.467Z,31.72
2018-03-12T18:01:41.632Z,31.85
2018-03-12T18:02:54.352Z,31.95
2018-03-12T18:04:07.498Z,31.95
2018-03-12T18:05:20.672Z,31.84
2018-03-12T18:06:33.994Z,32.1
2018-03-12T18:07:46.728Z,32.21
2018-03-12T18:08:59.503Z,32.43
2018-03-12T18:10:12.699Z,32.57
2018-03-12T18:11:24.911Z,33.01
2018-03-12T18:12:37.139Z,33.21
2018-03-12T18:13:49.824Z,33.42
2018-03-12T18:15:03.038Z,33.57
2018-03-12T18:16:16.250Z,33.94
2018-03-12T18:17:29.407Z,33.95
2018-03-12T18:18:42.164Z,34.15
2018-03-12T18:19:54.409Z,33.68
2018-03-12T18:21:07.570Z,33.37
2018-03-12T18:22:20.777Z,33.37
2018-03-12T18:23:33.002Z,33.37
2018-03-12T18:24:45.686Z,33.18
2018-03-12T18:25:58.912Z,33.32
2018-03-12T18:27:12.151Z,33.57
2018-03-12T18:28:25.354Z,33.94
2018-03-12T18:29:38.557Z,33.94
2018-03-12T18:30:51.830Z,33.9
2018-03-12T18:32:05.106Z,33.78
2018-03-12T18:33:17.407Z,33.73
2018-03-12T18:34:30.091Z,33.59
2018-03-12T18:35:43.311Z,33.21
2018-03-12T18:36:56.544Z,33.11
2018-03-12T18:38:09.766Z,33.34
2018-03-12T18:39:23.024Z,33.45
2018-03-12T18:40:35.732Z,33.66
2018-03-12T18:41:48.505Z,34.16
2018-03-12T18:43:01.749Z,34.59
2018-03-12T18:44:14.936Z,34.85
2018-03-12T18:45:28.137Z,34.84
2018-03-12T18:46:41.276Z,35.15
2018-03-12T18:47:54.464Z,35.63
2018-03-12T18:49:07.672Z,36.23
2018-03-12T18:50:20.444Z,36.51
2018-03-12T18:51:33.796Z,36.62
2018-03-12T18:52:47.103Z,36.5
2018-03-12T18:54:00.256Z,36.76
2018-03-12T18:55:13.443Z,36.87
2018-03-12T18:56:26.720Z,36.65
2018-03-12T18:57:39.995Z,36.64
2018-03-12T18:58:53.261Z,36.12
2018-03-12T19:00:06.568Z,35.82
2018-03-12T19:01:19.768Z,35.8
2018-03-12T19:02:32.920Z,35.52
2018-03-12T19:03:46.153Z,35.28
2018-03-12T19:04:59.356Z,35.34
2018-03-12T19:06:12.531Z,35.31
2018-03-12T19:07:25.769Z,35.11
2018-03-12T19:08:38.549Z,34.61
2018-03-12T19:09:51.235Z,34.73
2018-03-12T19:11:04.402Z,34.97
2018-03-12T19:12:17.653Z,34.96
2018-03-12T19:13:30.815Z,35
2018-03-12T19:14:43.085Z,34.85
2018-03-12T19:15:55.874Z,34.42
2018-03-12T19:17:09.083Z,34.28
2018-03-12T19:18:21.338Z,34.12
2018-03-12T19:19:33.618Z,34.03
2018-03-12T19:20:46.337Z,33.88
2018-03-12T19:21:59.599Z,33.41
2018-03-12T19:23:12.523Z,33.04
2018-03-12T19:24:25.721Z,32.87
2018-03-12T19:25:38.535Z,32.88
2018-03-12T19:26:51.710Z,32.66
2018-03-12T19:28:04.360Z,32.55
2018-03-12T19:29:17.598Z,32.08
2018-03-12T19:30:30.824Z,32.08
2018-03-12T19:31:43.521Z,32.03
2018-03-12T19:32:56.318Z,32.1
2018-03-12T19:34:09.066Z,32.06
2018-03-12T19:35:22.330Z,32.13
2018-03-12T19:36:35.609Z,32.07
2018-03-12T19:37:48.795Z,32.1
2018-03-12T19:39:02.002Z,31.96
2018-03-12T19:40:15.242Z,31.88
2018-03-12T19:41:28.447Z,31.89
2018-03-12T19:42:41.752Z,31.81
2018-03-12T19:43:55.008Z,31.57
2018-03-12T19:45:08.286Z,31.57
2018-03-12T19:46:21.506Z,31.54
2018-03-12T19:47:34.737Z,31.61
2018-03-12T19:48:47.916Z,31.61
2018-03-12T19:50:00.138Z,31.56
2018-03-12T19:51:12.834Z,31.63
2018-03-12T19:52:26.076Z,31.44
2018-03-12T19:53:39.298Z,31.54
2018-03-12T19:54:52.010Z,31.56
2018-03-12T19:56:05.284Z,31.46
2018-03-12T19:57:18.282Z,31.14
2018-03-12T19:58:30.525Z,31.17
2018-03-12T19:59:43.783Z,30.84
2018-03-12T20:00:56.572Z,30.73
2018-03-12T20:02:09.808Z,30.51
2018-03-12T20:03:22.492Z,30.22
2018-03-12T20:04:35.702Z,29.86
2018-03-12T20:05:48.953Z,29.67
2018-03-12T20:07:01.716Z,29.43
2018-03-12T20:08:14.433Z,29.37
2018-03-12T20:09:27.668Z,29.37
2018-03-12T20:10:40.849Z,29.24
2018-03-12T20:11:53.979Z,29.23
2018-03-12T20:13:07.197Z,29.11
2018-03-12T20:14:20.490Z,29.02
2018-03-12T20:15:33.161Z,28.92
2018-03-12T20:16:45.417Z,28.92
2018-03-12T20:17:58.678Z,28.59
2018-03-12T20:19:11.418Z,28.55
2018-03-12T20:20:24.120Z,28.59
2018-03-12T20:21:37.347Z,28.54
2018-03-12T20:22:50.555Z,28.51
2018-03-12T20:24:03.313Z,28.37
2018-03-12T20:25:16.090Z,28.31
2018-03-12T20:26:28.817Z,28.34
2018-03-12T20:27:41.504Z,28.25
2018-03-12T20:28:54.759Z,28.18
2018-03-12T20:30:07.964Z,28.18
2018-03-12T20:31:20.701Z,28.21
2018-03-12T20:32:34.039Z,28.22
2018-03-12T20:33:46.433Z,28.18
2018-03-12T20:34:58.183Z,28.09
2018-03-12T20:36:11.392Z,27.97
2018-03-12T20:37:24.625Z,28.02
2018-03-12T20:38:37.313Z,27.94
2018-03-12T20:39:50.475Z,27.94
2018-03-12T20:41:04.093Z,27.9
2018-03-12T20:42:16.903Z,27.9
2018-03-12T20:43:29.568Z,27.77
2018-03-12T20:44:42.292Z,27.66
2018-03-12T20:45:55.090Z,27.51
2018-03-12T20:47:07.892Z,27.32
2018-03-12T20:48:20.582Z,27.37
2018-03-12T20:49:33.813Z,27.19
2018-03-12T20:50:46.531Z,27.13
2018-03-12T20:51:59.802Z,27
2018-03-12T20:53:11.644Z,26.85
2018-03-12T20:54:23.856Z,26.73
2018-03-12T20:55:36.596Z,26.66
2018-03-12T20:56:49.338Z,26.7
2018-03-12T20:58:02.531Z,26.7
2018-03-12T20:59:15.309Z,26.81
2018-03-12T21:00:28.515Z,26.75
2018-03-12T21:01:40.733Z,26.91
2018-03-12T21:02:52.920Z,26.88
2018-03-12T21:04:06.242Z,26.88
2018-03-12T21:05:19.000Z,26.92
2018-03-12T21:06:32.206Z,26.94
2018-03-12T21:07:45.438Z,26.91
2018-03-12T21:08:58.655Z,26.88
2018-03-12T21:10:10.949Z,26.94
2018-03-12T21:11:23.644Z,26.88
2018-03-12T21:12:36.858Z,26.89
2018-03-12T21:13:49.972Z,26.95
2018-03-12T21:15:03.157Z,26.88
2018-03-12T21:16:16.291Z,26.87
2018-03-12T21:17:29.438Z,26.75
2018-03-12T21:18:42.686Z,26.89
2018-03-12T21:19:55.900Z,26.85
2018-03-12T21:21:09.164Z,26.69
2018-03-12T21:22:22.347Z,26.7
2018-03-12T21:23:35.538Z,26.76
2018-03-12T21:24:48.735Z,26.72
2018-03-12T21:26:00.963Z,26.76
2018-03-12T21:27:13.687Z,26.55
2018-03-12T21:28:26.824Z,26.69
2018-03-12T21:29:39.334Z,26.6
2018-03-12T21:30:52.533Z,26.7
2018-03-12T21:32:04.805Z,26.67
2018-03-12T21:33:17.562Z,26.66
2018-03-12T21:34:30.351Z,26.43
2018-03-12T21:35:43.086Z,26.5
2018-03-12T21:36:56.236Z,26.6
2018-03-12T21:38:09.519Z,26.57
2018-03-12T21:39:21.748Z,26.48
2018-03-12T21:40:34.961Z,26.55
2018-03-12T21:41:47.702Z,26.57
2018-03-12T21:42:59.996Z,26.5
2018-03-12T21:44:12.276Z,26.48
2018-03-12T21:45:24.989Z,26.48
2018-03-12T21:46:38.187Z,26.39
2018-03-12T21:47:51.515Z,26.21
2018-03-12T21:49:04.222Z,26.15
2018-03-12T21:50:17.472Z,26.21
2018-03-12T21:51:30.728Z,26.17
2018-03-12T21:52:43.976Z,26.15
2018-03-12T21:53:57.222Z,26.15
2018-03-12T21:55:10.457Z,26.07
2018-03-12T21:56:23.697Z,26.01
2018-03-12T21:57:36.975Z,26.07
2018-03-12T21:58:50.165Z,25.94
2018-03-12T22:00:03.390Z,26.05
2018-03-12T22:01:16.710Z,25.94
2018-03-12T22:02:29.959Z,25.97
2018-03-12T22:03:43.217Z,25.88
2018-03-12T22:04:56.421Z,25.88
2018-03-12T22:06:09.691Z,25.72
2018-03-12T22:07:22.892Z,25.58
2018-03-12T22:08:36.223Z,25.46
2018-03-12T22:09:48.978Z,25.46
2018-03-12T22:11:01.517Z,25.55
2018-03-12T22:12:14.729Z,25.54
2018-03-12T22:13:27.954Z,25.42
2018-03-12T22:14:41.231Z,25.23
2018-03-12T22:15:54.450Z,25.15
2018-03-12T22:17:07.705Z,25.08
2018-03-12T22:18:21.016Z,24.98
2018-03-12T22:19:34.316Z,24.99
2018-03-12T22:20:47.529Z,24.99
2018-03-12T22:22:00.806Z,25.09
2018-03-12T22:23:14.114Z,24.95
2018-03-12T22:24:27.372Z,25
2018-03-12T22:25:39.603Z,24.96
2018-03-12T22:26:52.402Z,24.91
2018-03-12T22:28:04.759Z,24.98
2018-03-12T22:29:18.047Z,25
2018-03-12T22:30:31.348Z,25
2018-03-12T22:31:44.562Z,25
2018-03-12T22:32:57.805Z,24.98
2018-03-12T22:34:11.118Z,25.09
2018-03-12T22:35:24.408Z,25.13
2018-03-12T22:36:37.139Z,25.13
2018-03-12T22:37:49.814Z,25.06
2018-03-12T22:39:03.008Z,25.03
2018-03-12T22:40:15.269Z,24.96
2018-03-12T22:41:28.503Z,25.02
2018-03-12T22:42:40.793Z,24.96
2018-03-12T22:43:54.034Z,24.96
2018-03-12T22:45:07.222Z,24.87
2018-03-12T22:46:19.976Z,24.87
2018-03-12T22:47:33.204Z,24.88
2018-03-12T22:48:46.611Z,24.85
2018-03-12T22:49:59.900Z,24.84
2018-03-12T22:51:12.653Z,24.77
2018-03-12T22:52:25.934Z,24.8
2018-03-12T22:53:39.159Z,24.8
2018-03-12T22:54:52.296Z,24.78
2018-03-12T22:56:05.217Z,24.84
2018-03-12T22:57:17.932Z,24.76
2018-03-12T22:58:30.587Z,24.91
2018-03-12T22:59:43.809Z,24.93
2018-03-12T23:00:56.598Z,24.9
2018-03-12T23:02:23.868Z,24.88
2018-03-12T23:03:36.655Z,24.87
2018-03-12T23:04:49.866Z,24.93
2018-03-12T23:06:03.143Z,24.85
2018-03-12T23:07:16.470Z,24.91
2018-03-12T23:08:29.238Z,24.87
2018-03-12T23:09:42.409Z,24.9
2018-03-12T23:10:55.524Z,24.84
2018-03-12T23:12:08.835Z,24.93
2018-03-12T23:13:22.045Z,24.99
2018-03-12T23:14:35.237Z,25
2018-03-12T23:15:47.955Z,25
2018-03-12T23:17:01.228Z,25.02
2018-03-12T23:18:14.357Z,24.96
2018-03-12T23:19:27.589Z,25.02
2018-03-12T23:20:40.773Z,24.99
2018-03-12T23:21:54.095Z,25.08
2018-03-12T23:23:07.386Z,25.06
2018-03-12T23:24:20.545Z,25.15
2018-03-12T23:25:33.702Z,24.99
2018-03-12T23:26:46.972Z,25.02
2018-03-12T23:28:00.166Z,25.02
2018-03-12T23:29:12.938Z,25
2018-03-12T23:30:26.266Z,25.09
2018-03-12T23:31:39.144Z,25.09
2018-03-12T23:32:52.365Z,25.06
2018-03-12T23:34:05.601Z,25.14
2018-03-12T23:35:18.290Z,25.14
2018-03-12T23:36:31.015Z,25.02
2018-03-12T23:37:44.196Z,25.06
2018-03-12T23:38:57.416Z,25.08
2018-03-12T23:40:10.342Z,25.14
2018-03-12T23:41:23.558Z,25.1
2018-03-12T23:42:36.796Z,25.13
2018-03-12T23:43:49.975Z,25.14
2018-03-12T23:45:03.174Z,25.17
2018-03-12T23:46:15.937Z,25.17
2018-03-12T23:47:28.167Z,25.1
2018-03-12T23:48:39.887Z,25.08
2018-03-12T23:49:53.082Z,25.21
2018-03-12T23:51:06.398Z,25.14
2018-03-12T23:52:18.671Z,25.14
2018-03-12T23:53:31.468Z,25.18
2018-03-12T23:54:44.693Z,25.17
2018-03-12T23:55:57.906Z,25.14
2018-03-12T23:57:11.130Z,25.21
2018-03-12T23:58:23.893Z,25.15
2018-03-12T23:59:37.108Z,25.14
